createdAt,value
2024-03-01T00:01:36.032Z,79.04
2024-03-01T00:04:05.081Z,79.36
2024-03-01T00:06:34.478Z,78.92
2024-03-01T00:09:03.478Z,79.38
2024-03-01T00:11:33.977Z,79.30
2024-03-01T00:14:02.826Z,79.30
2024-03-01T00:16:32.286Z,79.73
2024-03-01T00:19:01.292Z,80.16
2024-03-01T00:21:30.365Z,79.41
2024-03-01T00:23:59.261Z,79.01
2024-03-01T00:26:28.566Z,78.54
2024-03-01T00:28:57.562Z,79.00
2024-03-01T00:31:26.521Z,78.43
2024-03-01T00:33:56.888Z,78.60
2024-03-01T00:36:25.931Z,79.28
2024-03-01T00:38:54.815Z,79.64
2024-03-01T00:41:23.927Z,79.04
2024-03-01T00:43:52.843Z,79.91
2024-03-01T00:46:23.261Z,79.17
2024-03-01T00:48:56.410Z,78.92
2024-03-01T00:51:25.451Z,79.06
2024-03-01T00:53:54.484Z,79.68
2024-03-01T00:56:23.458Z,79.78
2024-03-01T00:58:52.609Z,79.46
2024-03-01T01:01:21.911Z,79.50
2024-03-01T01:03:51.069Z,79.58
2024-03-01T01:06:20.142Z,79.27
2024-03-01T01:08:49.211Z,78.96
2024-03-01T01:11:18.290Z,79.04
2024-03-01T01:13:47.177Z,78.27
2024-03-01T01:16:16.236Z,78.37
2024-03-01T01:18:45.218Z,78.45
2024-03-01T01:21:14.141Z,77.63
2024-03-01T01:23:43.085Z,77.20
2024-03-01T01:26:12.036Z,76.76
2024-03-01T01:28:41.417Z,76.89
2024-03-01T01:31:10.458Z,77.13
2024-03-01T01:33:39.421Z,76.98
2024-03-01T01:36:08.373Z,76.76
2024-03-01T01:38:37.412Z,76.65
2024-03-01T01:41:06.566Z,76.62
2024-03-01T01:43:37.707Z,76.10
2024-03-01T01:46:07.181Z,76.47
2024-03-01T01:48:36.326Z,77.75
2024-03-01T01:51:05.912Z,76.94
2024-03-01T01:53:36.717Z,75.69
2024-03-01T01:56:07.248Z,76.71
2024-03-01T01:58:37.150Z,77.15
2024-03-01T02:01:10.196Z,76.17
2024-03-01T02:03:41.670Z,75.82
2024-03-01T02:06:10.793Z,76.75
2024-03-01T02:08:42.712Z,77.08
2024-03-01T02:11:12.597Z,77.28
2024-03-01T02:13:41.662Z,76.61
2024-03-01T02:16:10.651Z,76.64
2024-03-01T02:18:39.846Z,76.09
2024-03-01T02:21:12.800Z,76.02
2024-03-01T02:23:41.839Z,75.92
2024-03-01T02:26:10.904Z,75.21
2024-03-01T02:28:46.809Z,74.51
2024-03-01T02:31:16.970Z,73.54
2024-03-01T02:33:45.901Z,73.83
2024-03-01T02:36:14.855Z,74.45
2024-03-01T02:38:44.189Z,75.67
2024-03-01T02:41:13.058Z,75.49
2024-03-01T02:43:42.005Z,75.13
2024-03-01T02:46:11.052Z,74.48
2024-03-01T02:48:40.060Z,72.89
2024-03-01T02:51:08.987Z,73.58
2024-03-01T02:53:38.260Z,72.58
2024-03-01T02:56:07.419Z,72.92
2024-03-01T02:58:36.576Z,73.01
2024-03-01T03:01:06.524Z,73.47
2024-03-01T03:03:35.364Z,73.25
2024-03-01T03:06:04.245Z,73.70
2024-03-01T03:08:33.066Z,72.69
2024-03-01T03:11:01.966Z,71.69
2024-03-01T03:13:31.098Z,72.35
2024-03-01T03:16:00.086Z,70.22
2024-03-01T03:18:28.926Z,67.86
2024-03-01T03:20:57.835Z,69.21
2024-03-01T03:23:27.063Z,69.96
2024-03-01T03:25:56.079Z,68.45
2024-03-01T03:28:25.254Z,69.88
2024-03-01T03:30:54.211Z,70.36
2024-03-01T03:33:23.296Z,69.43
2024-03-01T03:35:52.257Z,69.73
2024-03-01T03:38:21.115Z,67.91
2024-03-01T03:40:49.898Z,68.42
2024-03-01T03:43:18.974Z,68.60
2024-03-01T03:45:48.234Z,67.76
2024-03-01T03:48:17.171Z,68.18
2024-03-01T03:50:46.287Z,66.66
2024-03-01T03:53:15.215Z,67.02
2024-03-01T03:55:44.212Z,66.48
2024-03-01T03:58:13.222Z,67.69
2024-03-01T04:00:42.137Z,66.72
2024-03-01T04:03:10.963Z,67.38
2024-03-01T04:05:39.990Z,66.41
2024-03-01T04:08:09.032Z,67.07
2024-03-01T04:10:37.962Z,65.70
2024-03-01T04:13:08.451Z,64.68
2024-03-01T04:15:39.728Z,67.18
2024-03-01T04:18:12.835Z,68.29
2024-03-01T04:20:41.923Z,66.41
2024-03-01T04:23:10.932Z,65.34
2024-03-01T04:25:42.494Z,65.69
2024-03-01T04:28:11.437Z,66.09
2024-03-01T04:30:40.759Z,65.15
2024-03-01T04:33:09.655Z,65.93
2024-03-01T04:35:38.519Z,67.26
2024-03-01T04:38:08.233Z,65.96
2024-03-01T04:40:38.425Z,65.98
2024-03-01T04:43:11.072Z,65.47
2024-03-01T04:45:40.861Z,65.49
2024-03-01T04:48:10.464Z,66.95
2024-03-01T04:50:40.582Z,66.48
2024-03-01T04:53:09.817Z,65.98
2024-03-01T04:55:38.901Z,65.18
2024-03-01T04:58:07.775Z,64.70
2024-03-01T05:00:37.463Z,64.93
2024-03-01T05:03:09.289Z,65.10
2024-03-01T05:05:38.259Z,64.47
2024-03-01T05:08:09.640Z,64.74
2024-03-01T05:10:38.729Z,64.90
2024-03-01T05:13:08.482Z,64.58
2024-03-01T05:15:37.356Z,65.44
2024-03-01T05:18:08.151Z,64.90
2024-03-01T05:20:37.175Z,63.32
2024-03-01T05:23:06.309Z,63.42
2024-03-01T05:25:35.211Z,63.94
2024-03-01T05:28:04.835Z,63.11
2024-03-01T05:30:47.371Z,63.53
2024-03-01T05:33:21.208Z,61.93
2024-03-01T05:35:50.591Z,62.63
2024-03-01T05:38:19.578Z,64.00
2024-03-01T05:40:52.546Z,62.81
2024-03-01T05:43:25.116Z,63.80
2024-03-01T05:45:54.361Z,64.30
2024-03-01T05:48:23.511Z,65.22
2024-03-01T05:50:52.598Z,64.51
2024-03-01T05:53:21.746Z,65.04
2024-03-01T05:55:50.883Z,65.11
2024-03-01T05:58:21.534Z,64.94
2024-03-01T06:00:50.728Z,64.49
2024-03-01T06:03:19.913Z,62.84
2024-03-01T06:05:48.817Z,63.76
2024-03-01T06:08:17.841Z,65.02
2024-03-01T06:10:47.089Z,63.74
2024-03-01T06:13:16.138Z,64.51
2024-03-01T06:15:45.193Z,62.46
2024-03-01T06:18:14.172Z,63.51
2024-03-01T06:20:43.080Z,62.10
2024-03-01T06:23:12.082Z,61.57
2024-03-01T06:25:41.192Z,63.38
2024-03-01T06:28:10.191Z,62.56
2024-03-01T06:30:41.771Z,62.44
2024-03-01T06:33:11.264Z,62.01
2024-03-01T06:35:40.351Z,62.25
2024-03-01T06:38:09.294Z,60.63
2024-03-01T06:40:38.367Z,62.19
2024-03-01T06:43:07.314Z,62.92
2024-03-01T06:45:36.370Z,61.49
2024-03-01T06:48:05.633Z,59.38
2024-03-01T06:50:37.662Z,62.27
2024-03-01T06:53:06.729Z,62.64
2024-03-01T06:55:35.601Z,62.93
2024-03-01T06:58:04.810Z,61.94
2024-03-01T07:00:34.803Z,62.37
2024-03-01T07:03:05.428Z,62.46
2024-03-01T07:05:34.282Z,60.71
2024-03-01T07:08:03.478Z,60.51
2024-03-01T07:10:33.759Z,60.61
2024-03-01T07:13:02.872Z,60.93
2024-03-01T07:15:32.868Z,62.31
2024-03-01T07:18:02.674Z,61.80
2024-03-01T07:20:31.578Z,61.21
2024-03-01T07:23:00.550Z,61.27
2024-03-01T07:25:29.364Z,62.04
2024-03-01T07:27:58.471Z,60.57
2024-03-01T07:30:27.505Z,61.55
2024-03-01T07:32:56.492Z,63.22
2024-03-01T07:35:25.691Z,63.00
2024-03-01T07:37:55.200Z,62.52
2024-03-01T07:40:24.705Z,63.95
2024-03-01T07:42:53.763Z,61.38
2024-03-01T07:45:23.133Z,62.17
2024-03-01T07:47:52.164Z,60.76
2024-03-01T07:50:22.536Z,62.05
2024-03-01T07:52:51.746Z,63.76
2024-03-01T07:55:20.678Z,63.55
2024-03-01T07:57:50.909Z,63.79
2024-03-01T08:00:20.427Z,64.11
2024-03-01T08:03:03.352Z,62.58
2024-03-01T08:05:32.417Z,62.99
2024-03-01T08:08:01.372Z,64.28
2024-03-01T08:10:37.467Z,63.95
2024-03-01T08:13:06.964Z,65.30
2024-03-01T08:15:37.640Z,66.56
2024-03-01T08:18:18.363Z,67.40
2024-03-01T08:20:59.388Z,67.91
2024-03-01T08:23:30.321Z,67.57
2024-03-01T08:26:00.373Z,65.85
2024-03-01T08:28:34.065Z,66.74
2024-03-01T08:31:12.125Z,67.25
2024-03-01T08:33:42.761Z,65.32
2024-03-01T08:36:12.144Z,64.61
2024-03-01T08:38:44.740Z,65.40
2024-03-01T08:41:15.082Z,67.17
2024-03-01T08:43:45.708Z,65.57
2024-03-01T08:46:33.426Z,65.79
2024-03-01T08:49:24.086Z,66.21
2024-03-01T08:51:53.146Z,66.71
2024-03-01T08:54:25.307Z,67.45
2024-03-01T08:57:08.007Z,66.10
2024-03-01T08:59:50.857Z,66.27
2024-03-01T09:02:48.611Z,67.48
2024-03-01T09:05:18.438Z,65.65
2024-03-01T09:07:50.376Z,65.47
2024-03-01T09:10:39.493Z,66.15
2024-03-01T09:13:11.491Z,67.42
2024-03-01T09:15:45.376Z,68.38
2024-03-01T09:18:45.474Z,66.57
2024-03-01T09:21:33.056Z,66.54
2024-03-01T09:24:02.246Z,65.84
2024-03-01T09:26:31.942Z,67.56
2024-03-01T09:29:05.533Z,66.87
2024-03-01T09:31:36.220Z,68.39
2024-03-01T09:34:13.096Z,69.42
2024-03-01T09:36:42.427Z,69.46
2024-03-01T09:39:14.574Z,68.65
2024-03-01T09:41:52.718Z,70.34
2024-03-01T09:44:28.458Z,71.24
2024-03-01T09:47:03.134Z,71.69
2024-03-01T09:50:00.325Z,72.00
2024-03-01T09:52:43.455Z,72.46
2024-03-01T09:55:31.519Z,72.03
2024-03-01T09:58:20.427Z,72.59
2024-03-01T10:01:02.485Z,73.26
2024-03-01T10:03:43.123Z,72.19
2024-03-01T10:06:49.856Z,72.14
2024-03-01T10:09:50.614Z,72.04
2024-03-01T10:12:40.668Z,72.57
2024-03-01T10:15:40.211Z,72.99
2024-03-01T10:18:21.228Z,72.78
2024-03-01T10:21:29.980Z,73.52
2024-03-01T10:24:37.578Z,74.28
2024-03-01T10:27:29.028Z,74.94
2024-03-01T10:30:12.747Z,74.60
2024-03-01T10:33:12.792Z,75.16
2024-03-01T10:36:09.644Z,76.32
2024-03-01T10:39:12.438Z,76.56
2024-03-01T10:42:03.616Z,76.66
2024-03-01T10:44:46.271Z,77.00
2024-03-01T10:47:25.406Z,77.58
2024-03-01T10:50:15.445Z,78.10
2024-03-01T10:53:26.856Z,77.42
2024-03-01T10:56:11.199Z,76.96
2024-03-01T10:59:00.105Z,76.13
2024-03-01T11:01:49.231Z,76.96
2024-03-01T11:04:46.827Z,77.25
2024-03-01T11:07:40.973Z,77.78
2024-03-01T11:10:18.640Z,78.26
2024-03-01T11:12:50.001Z,78.05
2024-03-01T11:15:22.401Z,78.98
2024-03-01T11:17:53.501Z,79.68
2024-03-01T11:20:31.816Z,77.99
2024-03-01T11:23:32.239Z,78.26
2024-03-01T11:26:09.953Z,78.47
2024-03-01T11:28:44.705Z,79.37
2024-03-01T11:31:33.185Z,79.48
2024-03-01T11:34:08.151Z,79.77
2024-03-01T11:36:54.946Z,79.20
2024-03-01T11:40:06.474Z,78.80
2024-03-01T11:42:47.165Z,79.48
2024-03-01T11:45:26.818Z,79.40
2024-03-01T11:48:35.212Z,79.57
2024-03-01T11:51:43.796Z,80.40
2024-03-01T11:54:44.433Z,80.45
2024-03-01T11:57:38.196Z,80.14
2024-03-01T12:00:26.134Z,81.59
2024-03-01T12:03:24.630Z,83.22
2024-03-01T12:06:09.796Z,83.90
2024-03-01T12:08:56.692Z,84.09
2024-03-01T12:11:43.626Z,84.34
2024-03-01T12:14:18.069Z,84.26
2024-03-01T12:17:06.356Z,84.33
2024-03-01T12:19:51.306Z,83.04
2024-03-01T12:22:38.159Z,82.84
2024-03-01T12:25:08.085Z,83.52
2024-03-01T12:27:58.000Z,82.03
2024-03-01T12:30:32.532Z,81.27
2024-03-01T12:33:15.275Z,82.45
2024-03-01T12:35:58.500Z,84.00
2024-03-01T12:38:33.277Z,84.43
2024-03-01T12:41:22.718Z,86.15
2024-03-01T12:44:03.397Z,88.06
2024-03-01T12:46:50.766Z,88.52
2024-03-01T12:49:43.779Z,89.42
2024-03-01T12:52:15.770Z,90.64
2024-03-01T12:55:01.074Z,90.60
2024-03-01T12:57:41.336Z,91.44
2024-03-01T13:00:17.982Z,90.75
2024-03-01T13:03:15.543Z,89.52
2024-03-01T13:05:45.327Z,90.18
2024-03-01T13:08:29.743Z,89.67
2024-03-01T13:11:04.403Z,90.30
2024-03-01T13:13:36.365Z,89.42
2024-03-01T13:16:12.675Z,88.17
2024-03-01T13:19:03.710Z,87.76
2024-03-01T13:21:42.424Z,85.90
2024-03-01T13:24:33.109Z,87.14
2024-03-01T13:27:30.849Z,87.23
2024-03-01T13:30:07.168Z,86.93
2024-03-01T13:33:04.856Z,86.24
2024-03-01T13:35:35.715Z,87.25
2024-03-01T13:38:12.149Z,88.04
2024-03-01T13:40:49.558Z,88.07
2024-03-01T13:43:46.239Z,89.40
2024-03-01T13:46:26.064Z,90.74
2024-03-01T13:48:55.503Z,90.17
2024-03-01T13:51:27.290Z,90.86
2024-03-01T13:53:57.980Z,91.77
2024-03-01T13:56:28.263Z,91.64
2024-03-01T13:58:57.817Z,91.03
2024-03-01T14:01:27.972Z,90.24
2024-03-01T14:03:59.125Z,87.39
2024-03-01T14:06:28.277Z,87.59
2024-03-01T14:09:13.974Z,86.09
2024-03-01T14:11:43.998Z,85.27
2024-03-01T14:14:13.958Z,83.58
2024-03-01T14:16:49.386Z,83.11
2024-03-01T14:19:19.608Z,82.82
2024-03-01T14:21:48.621Z,83.10
2024-03-01T14:24:17.907Z,83.19
2024-03-01T14:26:47.542Z,82.55
2024-03-01T14:29:16.800Z,81.49
2024-03-01T14:32:16.569Z,83.31
2024-03-01T14:34:45.609Z,82.09
2024-03-01T14:37:25.785Z,82.07
2024-03-01T14:39:54.775Z,80.41
2024-03-01T14:42:25.014Z,80.15
2024-03-01T14:44:59.208Z,79.77
2024-03-01T14:47:30.382Z,77.75
2024-03-01T14:50:05.942Z,78.01
2024-03-01T14:52:34.917Z,78.95
2024-03-01T14:55:05.331Z,77.96
2024-03-01T14:57:34.850Z,77.55
2024-03-01T15:00:03.841Z,78.14
2024-03-01T15:02:33.036Z,77.97
2024-03-01T15:05:02.113Z,78.08
2024-03-01T15:07:31.049Z,78.18
2024-03-01T15:10:05.027Z,78.03
2024-03-01T15:12:34.149Z,77.28
2024-03-01T15:15:12.734Z,78.10
2024-03-01T15:17:42.194Z,78.00
2024-03-01T15:20:12.476Z,78.34
2024-03-01T15:22:42.848Z,77.60
2024-03-01T15:25:13.398Z,78.33
2024-03-01T15:27:42.321Z,77.58
2024-03-01T15:30:14.005Z,77.20
2024-03-01T15:32:42.979Z,77.04
2024-03-01T15:35:11.934Z,76.34
2024-03-01T15:37:41.513Z,74.50
2024-03-01T15:40:14.895Z,74.92
2024-03-01T15:42:44.224Z,74.50
2024-03-01T15:45:14.914Z,74.93
2024-03-01T15:47:44.208Z,72.23
2024-03-01T15:50:14.849Z,73.20
2024-03-01T15:52:45.412Z,71.19
2024-03-01T15:55:14.302Z,70.91
2024-03-01T15:57:44.506Z,69.61
2024-03-01T16:00:18.307Z,69.50
2024-03-01T16:02:48.122Z,70.67
2024-03-01T16:05:20.103Z,68.97
2024-03-01T16:07:53.568Z,69.38
2024-03-01T16:10:27.104Z,68.84
2024-03-01T16:13:03.575Z,68.63
2024-03-01T16:15:32.636Z,68.32
2024-03-01T16:18:04.746Z,67.26
2024-03-01T16:20:34.298Z,67.11
2024-03-01T16:23:06.457Z,67.90
2024-03-01T16:25:35.924Z,68.17
2024-03-01T16:28:06.827Z,67.50
2024-03-01T16:30:37.237Z,67.73
2024-03-01T16:33:06.964Z,67.26
2024-03-01T16:35:48.580Z,67.92
2024-03-01T16:38:17.481Z,68.12
2024-03-01T16:40:46.346Z,68.32
2024-03-01T16:43:47.755Z,68.15
2024-03-01T16:46:37.893Z,67.46
2024-03-01T16:49:14.751Z,67.08
2024-03-01T16:51:50.126Z,66.38
2024-03-01T16:54:42.204Z,66.81
2024-03-01T16:57:13.608Z,67.63
2024-03-01T16:59:43.169Z,67.78
2024-03-01T17:02:29.266Z,66.39
2024-03-01T17:05:00.290Z,66.41
2024-03-01T17:07:50.392Z,67.36
2024-03-01T17:10:38.182Z,67.25
2024-03-01T17:13:07.592Z,66.87
2024-03-01T17:15:36.571Z,66.87
2024-03-01T17:18:13.475Z,67.15
2024-03-01T17:20:45.103Z,67.82
2024-03-01T17:23:14.108Z,68.08
2024-03-01T17:25:43.913Z,66.33
2024-03-01T17:28:13.308Z,67.24
2024-03-01T17:30:42.203Z,67.45
2024-03-01T17:33:13.799Z,67.26
2024-03-01T17:35:42.945Z,67.62
2024-03-01T17:38:12.362Z,67.83
2024-03-01T17:40:41.360Z,66.50
2024-03-01T17:43:11.616Z,66.90
2024-03-01T17:45:40.666Z,67.51
2024-03-01T17:48:09.853Z,67.50
2024-03-01T17:50:38.880Z,67.30
2024-03-01T17:53:09.758Z,67.11
2024-03-01T17:55:39.758Z,67.42
2024-03-01T17:58:08.962Z,66.87
2024-03-01T18:00:38.024Z,67.26
2024-03-01T18:03:07.910Z,66.43
2024-03-01T18:05:37.057Z,66.24
2024-03-01T18:08:06.776Z,67.62
2024-03-01T18:10:35.762Z,67.13
2024-03-01T18:13:04.990Z,68.13
2024-03-01T18:15:34.010Z,68.06
2024-03-01T18:18:03.276Z,67.94
2024-03-01T18:20:32.376Z,67.44
2024-03-01T18:23:01.230Z,68.05
2024-03-01T18:25:30.061Z,67.63
2024-03-01T18:27:58.984Z,68.09
2024-03-01T18:30:27.930Z,68.10
2024-03-01T18:32:56.887Z,67.76
2024-03-01T18:35:27.438Z,67.95
2024-03-01T18:37:58.225Z,67.95
2024-03-01T18:40:27.103Z,67.79
2024-03-01T18:42:56.037Z,68.05
2024-03-01T18:45:25.005Z,68.09
2024-03-01T18:47:55.422Z,68.38
2024-03-01T18:50:25.119Z,68.10
2024-03-01T18:52:54.035Z,68.02
2024-03-01T18:55:23.397Z,67.96
2024-03-01T18:57:53.073Z,67.99
2024-03-01T19:00:25.678Z,68.29
2024-03-01T19:02:55.620Z,68.13
2024-03-01T19:05:24.596Z,67.78
2024-03-01T19:07:53.438Z,68.43
2024-03-01T19:10:22.865Z,66.61
2024-03-01T19:12:51.901Z,67.41
2024-03-01T19:15:20.724Z,68.30
2024-03-01T19:17:49.704Z,67.96
2024-03-01T19:20:18.661Z,68.73
2024-03-01T19:22:47.841Z,69.25
2024-03-01T19:25:16.963Z,68.89
2024-03-01T19:27:47.257Z,68.74
2024-03-01T19:30:18.313Z,68.70
2024-03-01T19:32:48.909Z,69.04
2024-03-01T19:35:17.973Z,68.83
2024-03-01T19:37:46.896Z,68.57
2024-03-01T19:40:16.769Z,68.24
2024-03-01T19:42:46.575Z,68.34
2024-03-01T19:45:15.386Z,68.29
2024-03-01T19:47:46.268Z,68.04
2024-03-01T19:50:15.389Z,68.05
2024-03-01T19:52:44.576Z,67.98
2024-03-01T19:55:13.568Z,67.57
2024-03-01T19:57:42.452Z,68.69
2024-03-01T20:00:11.660Z,67.99
2024-03-01T20:02:40.638Z,68.26
2024-03-01T20:05:09.889Z,68.51
2024-03-01T20:07:38.974Z,67.93
2024-03-01T20:10:08.485Z,68.32
2024-03-01T20:12:38.122Z,68.79
2024-03-01T20:15:08.106Z,68.72
2024-03-01T20:17:37.170Z,68.73
2024-03-01T20:20:06.309Z,68.96
2024-03-01T20:22:35.647Z,69.25
2024-03-01T20:25:05.389Z,68.68
2024-03-01T20:27:35.138Z,68.75
2024-03-01T20:30:04.123Z,68.78
2024-03-01T20:32:33.124Z,68.32
2024-03-01T20:35:02.056Z,69.24
2024-03-01T20:37:31.097Z,69.04
2024-03-01T20:40:00.029Z,67.79
2024-03-01T20:42:29.077Z,68.35
2024-03-01T20:44:57.939Z,68.24
2024-03-01T20:47:27.181Z,68.43
2024-03-01T20:49:56.142Z,67.75
2024-03-01T20:52:25.695Z,68.17
2024-03-01T20:54:54.749Z,68.54
2024-03-01T20:57:25.926Z,68.39
2024-03-01T20:59:56.266Z,67.74
2024-03-01T21:02:25.354Z,67.79
2024-03-01T21:04:54.699Z,67.63
2024-03-01T21:07:23.694Z,68.29
2024-03-01T21:09:52.707Z,67.66
2024-03-01T21:12:21.834Z,68.67
2024-03-01T21:14:50.718Z,67.77
2024-03-01T21:17:19.816Z,68.05
2024-03-01T21:19:48.847Z,67.86
2024-03-01T21:24:52.272Z,68.17
2024-03-01T21:27:21.169Z,68.50
2024-03-01T21:29:50.228Z,68.82
2024-03-01T21:32:24.857Z,68.72
2024-03-01T21:34:54.319Z,68.81
2024-03-01T21:37:24.333Z,68.55
2024-03-01T21:39:53.152Z,69.48
2024-03-01T21:42:22.059Z,69.39
2024-03-01T21:44:51.346Z,69.55
2024-03-01T21:47:20.886Z,69.65
2024-03-01T21:49:50.000Z,70.25
2024-03-01T21:52:19.125Z,70.46
2024-03-01T21:54:49.248Z,69.31
2024-03-01T21:57:18.413Z,70.12
2024-03-01T21:59:47.790Z,69.36
2024-03-01T22:02:16.932Z,69.47
2024-03-01T22:04:45.913Z,69.77
2024-03-01T22:07:14.969Z,70.13
2024-03-01T22:09:43.836Z,69.70
2024-03-01T22:12:12.889Z,69.17
2024-03-01T22:14:41.852Z,69.57
2024-03-01T22:17:12.662Z,69.51
2024-03-01T22:19:41.664Z,69.23
2024-03-01T22:22:10.780Z,69.77
2024-03-01T22:24:41.897Z,69.39
2024-03-01T22:27:10.944Z,69.71
2024-03-01T22:29:40.108Z,69.71
2024-03-01T22:32:09.057Z,69.81
2024-03-01T22:34:38.089Z,70.55
2024-03-01T22:37:07.021Z,70.27
2024-03-01T22:39:36.301Z,69.78
2024-03-01T22:42:05.453Z,69.76
2024-03-01T22:44:34.621Z,70.49
2024-03-01T22:47:03.830Z,70.12
2024-03-01T22:49:32.694Z,70.30
2024-03-01T22:52:01.896Z,70.78
2024-03-01T22:54:31.138Z,71.18
2024-03-01T22:57:00.188Z,71.10
2024-03-01T23:00:28.745Z,71.20
2024-03-01T23:02:58.570Z,71.85
2024-03-01T23:06:00.706Z,70.76
2024-03-01T23:08:36.086Z,71.33
2024-03-01T23:11:09.823Z,71.56
2024-03-01T23:13:43.412Z,71.58
2024-03-01T23:16:12.495Z,71.70
2024-03-01T23:18:41.402Z,72.07
2024-03-01T23:21:11.185Z,71.75
2024-03-01T23:23:40.622Z,72.07
2024-03-01T23:26:09.665Z,71.69
2024-03-01T23:28:38.972Z,71.41
2024-03-01T23:31:08.184Z,71.35
2024-03-01T23:33:37.185Z,71.19
2024-03-01T23:36:12.650Z,70.96
2024-03-01T23:38:41.647Z,71.18
2024-03-01T23:41:11.380Z,71.21
2024-03-01T23:43:40.631Z,71.00
2024-03-01T23:46:09.424Z,71.46
2024-03-01T23:48:40.866Z,71.46
2024-03-01T23:51:11.252Z,71.79
2024-03-01T23:53:40.253Z,71.65
2024-03-01T23:56:09.261Z,71.26
2024-03-01T23:58:42.435Z,71.11
